createdAt,value
2023-02-11T00:00:29.220Z,-2.97
2023-02-11T00:03:32.196Z,-2.98
2023-02-11T00:06:35.665Z,-3.01
2023-02-11T00:09:38.444Z,-3.03
2023-02-11T00:12:41.137Z,-3.10
2023-02-11T00:15:43.934Z,-3.22
2023-02-11T00:18:46.708Z,-3.23
2023-02-11T00:21:50.175Z,-3.15
2023-02-11T00:24:52.745Z,-3.20
2023-02-11T00:27:55.570Z,-3.18
2023-02-11T00:30:58.692Z,-3.21
2023-02-11T00:34:01.859Z,-3.25
2023-02-11T00:37:04.936Z,-3.25
2023-02-11T00:40:08.375Z,-3.34
2023-02-11T00:43:11.002Z,-3.42
2023-02-11T00:46:14.494Z,-3.46
2023-02-11T00:49:17.527Z,-3.47
2023-02-11T00:52:21.482Z,-3.48
2023-02-11T00:55:24.039Z,-3.49
2023-02-11T00:58:27.574Z,-3.49
2023-02-11T01:01:30.371Z,-3.44
2023-02-11T01:04:33.428Z,-3.44
2023-02-11T01:07:35.974Z,-3.44
2023-02-11T01:10:39.030Z,-3.47
2023-02-11T01:13:42.217Z,-3.65
2023-02-11T01:16:45.171Z,-3.52
2023-02-11T01:19:49.227Z,-3.47
2023-02-11T01:22:52.179Z,-3.50
2023-02-11T01:25:54.763Z,-3.52
2023-02-11T01:29:00.054Z,-3.57
2023-02-11T01:32:03.476Z,-3.56
2023-02-11T01:35:07.081Z,-3.71
2023-02-11T01:38:21.106Z,-3.55
2023-02-11T01:41:24.029Z,-3.56
2023-02-11T01:44:36.524Z,-3.59
2023-02-11T01:47:39.393Z,-3.60
2023-02-11T01:50:43.472Z,-3.59
2023-02-11T01:54:05.102Z,-3.60
2023-02-11T01:57:23.383Z,-3.58
2023-02-11T02:00:36.246Z,-3.52
2023-02-11T02:03:42.862Z,-3.48
2023-02-11T02:06:56.562Z,-3.47
2023-02-11T02:10:04.179Z,-3.46
2023-02-11T02:13:06.758Z,-3.45
2023-02-11T02:16:14.682Z,-3.48
2023-02-11T02:19:42.125Z,-3.48
2023-02-11T02:22:58.663Z,-3.50
2023-02-11T02:26:49.281Z,-3.53
2023-02-11T02:30:14.103Z,-3.51
2023-02-11T02:33:47.862Z,-3.52
2023-02-11T02:37:02.621Z,-3.55
2023-02-11T02:40:11.980Z,-3.50
2023-02-11T02:43:15.645Z,-3.44
2023-02-11T02:46:24.277Z,-3.54
2023-02-11T02:49:27.308Z,-3.32
2023-02-11T02:52:42.159Z,-3.26
2023-02-11T02:56:09.934Z,-3.23
2023-02-11T02:59:22.733Z,-3.20
2023-02-11T03:02:36.632Z,-3.15
2023-02-11T03:06:00.739Z,-3.12
2023-02-11T03:09:14.918Z,-3.12
2023-02-11T03:12:17.804Z,-3.10
2023-02-11T03:15:21.418Z,-3.08
2023-02-11T03:18:27.585Z,-3.08
2023-02-11T03:21:33.251Z,-3.08
2023-02-11T03:24:38.124Z,-3.09
2023-02-11T03:27:43.413Z,-3.12
2023-02-11T03:30:50.421Z,-3.33
2023-02-11T03:34:22.605Z,-3.17
2023-02-11T03:37:45.925Z,-3.20
2023-02-11T03:40:50.060Z,-3.23
2023-02-11T03:43:55.804Z,-3.27
2023-02-11T03:46:59.075Z,-3.33
2023-02-11T03:50:05.293Z,-3.39
2023-02-11T03:53:08.201Z,-3.43
2023-02-11T03:56:14.955Z,-3.61
2023-02-11T03:59:17.901Z,-3.47
2023-02-11T04:02:22.501Z,-3.46
2023-02-11T04:05:25.499Z,-3.48
2023-02-11T04:08:28.246Z,-3.49
2023-02-11T04:11:31.069Z,-3.53
2023-02-11T04:14:33.744Z,-3.54
2023-02-11T04:17:36.823Z,-3.56
2023-02-11T04:20:39.550Z,-3.59
2023-02-11T04:23:42.673Z,-3.63
2023-02-11T04:26:45.533Z,-3.67
2023-02-11T04:29:48.802Z,-3.74
2023-02-11T04:32:51.348Z,-3.76
2023-02-11T04:35:54.246Z,-3.82
2023-02-11T04:38:57.011Z,-3.84
2023-02-11T04:42:00.053Z,-3.83
2023-02-11T04:45:02.812Z,-3.91
2023-02-11T04:48:05.706Z,-3.95
2023-02-11T04:51:08.620Z,-3.96
2023-02-11T04:54:11.979Z,-4.03
2023-02-11T04:57:14.455Z,-3.96
2023-02-11T05:00:17.726Z,-3.93
2023-02-11T05:03:20.578Z,-3.93
2023-02-11T05:06:23.460Z,-3.92
2023-02-11T05:09:26.042Z,-3.86
2023-02-11T05:12:28.915Z,-3.83
2023-02-11T05:15:31.415Z,-3.78
2023-02-11T05:18:34.770Z,-3.73
2023-02-11T05:21:37.409Z,-3.72
2023-02-11T05:24:40.534Z,-3.73
2023-02-11T05:27:43.113Z,-3.76
2023-02-11T05:30:45.975Z,-3.72
2023-02-11T05:33:48.714Z,-3.72
2023-02-11T05:36:51.502Z,-3.74
2023-02-11T05:39:54.265Z,-3.75
2023-02-11T05:42:57.082Z,-3.77
2023-02-11T05:45:59.690Z,-3.89
2023-02-11T05:49:02.654Z,-3.81
2023-02-11T05:52:05.653Z,-3.82
2023-02-11T05:55:08.732Z,-3.82
2023-02-11T05:58:11.268Z,-3.86
2023-02-11T06:01:14.146Z,-3.90
2023-02-11T06:04:16.939Z,-3.93
2023-02-11T06:07:19.839Z,-3.96
2023-02-11T06:10:22.892Z,-3.97
2023-02-11T06:13:25.477Z,-3.92
2023-02-11T06:16:28.766Z,-3.94
2023-02-11T06:19:31.493Z,-3.89
2023-02-11T06:22:35.092Z,-3.83
2023-02-11T06:25:37.885Z,-3.80
2023-02-11T06:28:42.064Z,-3.84
2023-02-11T06:31:44.865Z,-3.87
2023-02-11T06:34:47.635Z,-3.97
2023-02-11T06:37:50.212Z,-3.94
2023-02-11T06:40:53.097Z,-3.91
2023-02-11T06:43:55.586Z,-3.87
2023-02-11T06:46:58.451Z,-3.79
2023-02-11T06:50:00.988Z,-3.69
2023-02-11T06:53:03.937Z,-3.58
2023-02-11T06:56:09.652Z,-3.52
2023-02-11T06:59:16.683Z,-3.40
2023-02-11T07:02:21.000Z,-3.31
2023-02-11T07:05:24.134Z,-3.22
2023-02-11T07:08:26.982Z,-3.15
2023-02-11T07:11:30.090Z,-3.23
2023-02-11T07:14:32.935Z,-2.99
2023-02-11T07:17:37.997Z,-2.92
2023-02-11T07:20:41.824Z,-2.86
2023-02-11T07:23:45.380Z,-2.79
2023-02-11T07:26:47.873Z,-2.70
2023-02-11T07:29:50.791Z,-2.56
2023-02-11T07:32:53.761Z,-2.41
2023-02-11T07:36:00.555Z,-2.20
2023-02-11T07:39:04.024Z,-2.04
2023-02-11T07:42:06.915Z,-2.05
2023-02-11T07:45:09.875Z,-1.76
2023-02-11T07:48:12.687Z,-2.17
2023-02-11T07:51:21.012Z,-1.65
2023-02-11T07:54:24.437Z,-1.58
2023-02-11T07:57:27.521Z,-1.48
2023-02-11T08:00:30.675Z,-1.36
2023-02-11T08:03:34.949Z,-1.24
2023-02-11T08:06:41.496Z,-1.13
2023-02-11T08:09:44.611Z,-1.04
2023-02-11T08:12:47.430Z,-0.93
2023-02-11T08:15:50.513Z,-0.77
2023-02-11T08:18:53.796Z,-0.64
2023-02-11T08:21:57.208Z,-0.51
2023-02-11T08:24:59.798Z,-0.50
2023-02-11T08:28:03.037Z,-0.28
2023-02-11T08:31:10.644Z,-0.26
2023-02-11T08:34:14.945Z,-0.29
2023-02-11T08:37:17.796Z,-0.32
2023-02-11T08:40:21.145Z,-0.30
2023-02-11T08:43:23.623Z,-0.29
2023-02-11T08:46:27.245Z,0.55
2023-02-11T08:49:30.831Z,0.34
2023-02-11T08:52:33.807Z,0.25
2023-02-11T08:55:36.341Z,0.19
2023-02-11T08:58:39.194Z,0.27
2023-02-11T09:01:42.003Z,0.33
2023-02-11T09:04:44.934Z,0.44
2023-02-11T09:07:47.413Z,0.43
2023-02-11T09:10:50.436Z,0.47
2023-02-11T09:13:54.501Z,0.53
2023-02-11T09:16:57.649Z,0.75
2023-02-11T09:20:02.534Z,1.00
2023-02-11T09:23:06.975Z,1.39
2023-02-11T09:26:13.929Z,1.70
2023-02-11T09:29:16.811Z,1.97
2023-02-11T09:32:19.496Z,2.06
2023-02-11T09:35:23.285Z,1.99
2023-02-11T09:38:25.896Z,2.05
2023-02-11T09:41:50.257Z,2.81
2023-02-11T09:44:53.026Z,3.23
2023-02-11T09:47:58.316Z,3.47
2023-02-11T09:51:01.740Z,3.73
2023-02-11T09:54:11.663Z,3.71
2023-02-11T09:57:26.773Z,3.68
2023-02-11T10:00:40.090Z,3.86
2023-02-11T10:04:11.604Z,3.88
2023-02-11T10:07:21.717Z,3.66
2023-02-11T10:10:47.923Z,3.93
2023-02-11T10:13:56.944Z,4.01
2023-02-11T10:17:17.190Z,4.00
2023-02-11T10:20:35.503Z,3.57
2023-02-11T10:23:41.486Z,3.51
2023-02-11T10:26:45.426Z,3.45
2023-02-11T10:29:53.533Z,3.41
2023-02-11T10:33:22.372Z,3.45
2023-02-11T10:36:34.347Z,3.68
2023-02-11T10:39:37.005Z,4.01
2023-02-11T10:42:42.315Z,4.27
2023-02-11T10:45:47.035Z,4.35
2023-02-11T10:48:53.859Z,4.04
2023-02-11T10:52:12.604Z,4.05
2023-02-11T10:55:20.942Z,4.07
2023-02-11T10:58:27.165Z,4.16
2023-02-11T11:01:46.302Z,4.37
2023-02-11T11:04:48.946Z,4.24
2023-02-11T11:07:57.523Z,3.93
2023-02-11T11:11:07.362Z,3.83
2023-02-11T11:14:19.711Z,4.04
2023-02-11T11:17:22.201Z,4.03
2023-02-11T11:20:29.120Z,4.24
2023-02-11T11:23:32.285Z,5.82
2023-02-11T11:26:46.641Z,6.89
2023-02-11T11:29:52.025Z,7.68
2023-02-11T11:32:55.146Z,7.57
2023-02-11T11:35:59.874Z,8.27
2023-02-11T11:39:15.614Z,8.31
2023-02-11T11:42:39.248Z,8.83
2023-02-11T11:45:59.568Z,8.69
2023-02-11T11:49:25.726Z,9.31
2023-02-11T11:52:45.475Z,9.11
2023-02-11T11:55:59.591Z,8.92
2023-02-11T11:59:06.693Z,9.48
2023-02-11T12:02:34.229Z,9.67
2023-02-11T12:06:07.764Z,10.08
2023-02-11T12:09:55.279Z,10.03
2023-02-11T12:13:12.427Z,9.87
2023-02-11T12:16:25.215Z,9.59
2023-02-11T12:19:38.660Z,8.90
2023-02-11T12:23:02.323Z,8.95
2023-02-11T12:26:11.003Z,9.60
2023-02-11T12:29:22.732Z,9.55
2023-02-11T12:33:03.249Z,9.30
2023-02-11T12:36:23.035Z,9.20
2023-02-11T12:39:47.744Z,8.59
2023-02-11T12:43:16.710Z,7.51
2023-02-11T12:46:28.359Z,7.43
2023-02-11T12:49:37.582Z,7.04
2023-02-11T12:52:59.225Z,6.60
2023-02-11T12:56:06.731Z,6.38
2023-02-11T12:59:17.448Z,6.48
2023-02-11T13:02:32.298Z,6.50
2023-02-11T13:05:42.744Z,6.37
2023-02-11T13:08:50.491Z,6.23
2023-02-11T13:11:55.674Z,7.24
2023-02-11T13:15:03.918Z,8.26
2023-02-11T13:18:25.786Z,8.32
2023-02-11T13:21:43.126Z,8.15
2023-02-11T13:25:08.356Z,7.51
2023-02-11T13:28:41.448Z,7.62
2023-02-11T13:31:56.680Z,7.36
2023-02-11T13:35:01.262Z,7.52
2023-02-11T13:38:28.969Z,7.49
2023-02-11T13:41:32.894Z,7.13
2023-02-11T13:44:35.784Z,6.73
2023-02-11T13:47:38.608Z,6.49
2023-02-11T13:50:48.209Z,6.27
2023-02-11T13:53:56.310Z,6.05
2023-02-11T13:57:21.312Z,5.97
2023-02-11T14:00:39.062Z,5.84
2023-02-11T14:04:39.440Z,5.78
2023-02-11T14:08:29.740Z,5.68
2023-02-11T14:11:32.757Z,5.63
2023-02-11T14:15:00.340Z,5.51
2023-02-11T14:18:43.774Z,5.39
2023-02-11T14:21:46.993Z,5.44
2023-02-11T14:24:58.884Z,5.47
2023-02-11T14:28:12.899Z,5.54
2023-02-11T14:31:44.022Z,5.50
2023-02-11T14:35:31.761Z,5.42
2023-02-11T14:38:52.973Z,5.33
2023-02-11T14:41:56.211Z,5.21
2023-02-11T14:45:04.983Z,5.15
2023-02-11T14:48:30.122Z,5.08
2023-02-11T14:51:36.799Z,5.03
2023-02-11T14:54:41.002Z,4.98
2023-02-11T14:57:45.750Z,4.92
2023-02-11T15:00:51.541Z,4.91
2023-02-11T15:03:58.757Z,4.90
2023-02-11T15:07:05.770Z,4.87
2023-02-11T15:10:28.585Z,4.81
2023-02-11T15:13:32.063Z,4.76
2023-02-11T15:16:35.225Z,4.73
2023-02-11T15:19:41.223Z,4.74
2023-02-11T15:22:46.285Z,4.72
2023-02-11T15:25:55.841Z,4.72
2023-02-11T15:28:59.855Z,4.70
2023-02-11T15:32:17.747Z,4.69
2023-02-11T15:35:22.174Z,4.64
2023-02-11T15:38:24.882Z,4.60
2023-02-11T15:41:38.623Z,4.56
2023-02-11T15:44:41.471Z,4.47
2023-02-11T15:47:53.912Z,4.38
2023-02-11T15:51:00.536Z,4.30
2023-02-11T15:54:07.920Z,4.20
2023-02-11T15:57:10.831Z,4.14
2023-02-11T16:00:18.927Z,4.09
2023-02-11T16:03:24.524Z,4.03
2023-02-11T16:06:40.317Z,3.97
2023-02-11T16:09:43.613Z,3.88
2023-02-11T16:13:19.173Z,3.84
2023-02-11T16:16:24.544Z,3.76
2023-02-11T16:19:28.541Z,3.69
2023-02-11T16:22:35.423Z,3.65
2023-02-11T16:25:38.198Z,3.53
2023-02-11T16:28:41.830Z,3.43
2023-02-11T16:31:47.071Z,3.37
2023-02-11T16:34:51.054Z,3.29
2023-02-11T16:37:54.934Z,3.21
2023-02-11T16:40:58.350Z,3.14
2023-02-11T16:44:01.056Z,3.08
2023-02-11T16:47:05.976Z,3.02
2023-02-11T16:50:11.908Z,3.01
2023-02-11T16:53:20.041Z,2.87
2023-02-11T16:56:22.872Z,3.00
2023-02-11T16:59:25.965Z,2.98
2023-02-11T17:02:31.699Z,2.96
2023-02-11T17:05:49.418Z,2.97
2023-02-11T17:08:57.138Z,2.97
2023-02-11T17:12:00.444Z,2.98
2023-02-11T17:15:04.890Z,2.98
2023-02-11T17:18:12.429Z,2.96
2023-02-11T17:21:15.674Z,2.96
2023-02-11T17:24:20.269Z,2.86
2023-02-11T17:27:23.374Z,2.89
2023-02-11T17:30:26.578Z,2.86
2023-02-11T17:33:29.482Z,2.82
2023-02-11T17:36:33.421Z,2.79
2023-02-11T17:39:40.007Z,2.75
2023-02-11T17:42:43.199Z,2.71
2023-02-11T17:45:46.022Z,2.71
2023-02-11T17:48:49.307Z,2.70
2023-02-11T17:51:51.874Z,2.70
2023-02-11T17:54:55.262Z,2.70
2023-02-11T17:57:57.928Z,2.67
2023-02-11T18:01:01.040Z,2.64
2023-02-11T18:04:04.688Z,2.62
2023-02-11T18:07:07.848Z,2.59
2023-02-11T18:10:11.712Z,2.57
2023-02-11T18:13:14.404Z,2.57
2023-02-11T18:16:17.559Z,2.54
2023-02-11T18:19:20.827Z,2.53
2023-02-11T18:22:24.686Z,2.41
2023-02-11T18:25:27.270Z,2.54
2023-02-11T18:28:30.650Z,2.55
2023-02-11T18:31:35.375Z,2.56
2023-02-11T18:34:40.787Z,2.57
2023-02-11T18:37:43.570Z,2.53
2023-02-11T18:40:47.559Z,2.57
2023-02-11T18:43:50.466Z,2.58
2023-02-11T18:46:54.144Z,2.58
2023-02-11T18:49:56.859Z,2.57
2023-02-11T18:53:02.321Z,2.58
2023-02-11T18:56:14.398Z,2.57
2023-02-11T18:59:17.967Z,2.58
2023-02-11T19:02:20.998Z,2.62
2023-02-11T19:05:28.730Z,2.63
2023-02-11T19:08:32.190Z,2.64
2023-02-11T19:11:49.923Z,2.64
2023-02-11T19:14:52.952Z,3.14
2023-02-11T19:17:56.433Z,3.00
2023-02-11T19:20:59.500Z,2.91
2023-02-11T19:24:07.694Z,2.86
2023-02-11T19:27:13.366Z,2.83
2023-02-11T19:30:22.795Z,2.79
2023-02-11T19:33:42.842Z,2.75
2023-02-11T19:36:48.631Z,2.71
2023-02-11T19:39:58.274Z,2.68
2023-02-11T19:43:02.143Z,2.67
2023-02-11T19:46:07.034Z,2.57
2023-02-11T19:49:13.018Z,2.63
2023-02-11T19:52:15.648Z,2.59
2023-02-11T19:55:18.931Z,2.55
2023-02-11T19:58:21.739Z,2.51
2023-02-11T20:01:25.977Z,2.47
2023-02-11T20:04:32.121Z,2.45
2023-02-11T20:07:35.356Z,2.45
2023-02-11T20:10:39.040Z,2.45
2023-02-11T20:13:42.288Z,2.45
2023-02-11T20:16:49.492Z,2.47
2023-02-11T20:19:53.473Z,2.48
2023-02-11T20:22:58.584Z,2.50
2023-02-11T20:26:15.498Z,2.51
2023-02-11T20:29:18.840Z,2.54
2023-02-11T20:32:21.705Z,2.59
2023-02-11T20:35:28.034Z,2.58
2023-02-11T20:38:30.903Z,2.54
2023-02-11T20:41:35.908Z,2.54
2023-02-11T20:44:38.983Z,2.58
2023-02-11T20:47:42.545Z,2.61
2023-02-11T20:50:48.366Z,2.64
2023-02-11T20:53:52.539Z,2.67
2023-02-11T20:56:56.911Z,2.66
2023-02-11T21:00:00.271Z,2.65
2023-02-11T21:03:04.704Z,2.65
2023-02-11T21:06:08.460Z,2.66
2023-02-11T21:09:14.284Z,2.65
2023-02-11T21:12:17.433Z,2.66
2023-02-11T21:15:20.527Z,2.68
2023-02-11T21:18:23.866Z,2.67
2023-02-11T21:21:27.117Z,2.70
2023-02-11T21:24:32.987Z,2.51
2023-02-11T21:27:36.320Z,2.64
2023-02-11T21:30:40.525Z,2.71
2023-02-11T21:33:43.457Z,2.71
2023-02-11T21:36:46.617Z,2.70
2023-02-11T21:39:50.011Z,2.70
2023-02-11T21:42:53.775Z,2.62
2023-02-11T21:45:56.651Z,2.70
2023-02-11T21:49:00.519Z,2.67
2023-02-11T21:52:03.252Z,2.65
2023-02-11T21:55:06.795Z,2.61
2023-02-11T21:58:10.495Z,2.62
2023-02-11T22:01:20.689Z,2.58
2023-02-11T22:04:23.723Z,2.52
2023-02-11T22:07:28.088Z,2.44
2023-02-11T22:10:31.133Z,2.41
2023-02-11T22:13:34.362Z,2.33
2023-02-11T22:16:37.491Z,2.29
2023-02-11T22:19:40.198Z,2.23
2023-02-11T22:22:43.229Z,2.19
2023-02-11T22:25:45.826Z,2.12
2023-02-11T22:28:49.874Z,2.14
2023-02-11T22:31:52.486Z,2.08
2023-02-11T22:34:55.389Z,2.10
2023-02-11T22:37:58.042Z,2.07
2023-02-11T22:41:06.032Z,2.06
2023-02-11T22:44:09.085Z,2.05
2023-02-11T22:47:12.056Z,2.04
2023-02-11T22:50:14.633Z,2.08
2023-02-11T22:53:17.569Z,2.07
2023-02-11T22:56:20.643Z,2.10
2023-02-11T22:59:23.699Z,2.06
2023-02-11T23:02:26.322Z,2.06
2023-02-11T23:05:29.444Z,2.04
2023-02-11T23:08:33.057Z,2.08
2023-02-11T23:11:36.058Z,2.09
2023-02-11T23:14:38.781Z,2.09
2023-02-11T23:17:41.657Z,2.13
2023-02-11T23:20:44.750Z,2.07
2023-02-11T23:23:49.298Z,2.10
2023-02-11T23:26:51.919Z,2.05
2023-02-11T23:29:57.896Z,1.95
2023-02-11T23:33:00.533Z,1.99
2023-02-11T23:36:03.579Z,1.92
2023-02-11T23:39:06.236Z,1.89
2023-02-11T23:42:09.320Z,1.86
2023-02-11T23:45:12.221Z,1.84
2023-02-11T23:48:15.240Z,1.82
2023-02-11T23:51:18.165Z,1.85
2023-02-11T23:54:21.019Z,1.82
2023-02-11T23:57:23.662Z,1.83
